Portada
METAR-TAF:

METAR-TAF

Aeroports :

Talkeetna, Alaska, Estats Units d'Amèrica

latitud: 62-19-14N, longitud: 150-05-37W, altitud: 109 m

Observació

L'informe es va fer fa 23 minuts, a les 23:53 UTC
Vent 3 kt del Nord-Est
Temperatura -1°C
Humitat 86%
Pressió 1011 hPa
Visibilitat: 9.7 km
Cel clar

METAR: PATK 082353Z 05003KT 6SM CLR M01/M03 A2985

Hora: 15:16 (00:16 UTC)

Pronòstic

L'informe es va fer fa 41 minuts, a les 23:35 UTC
Pronòstic vàlid del 09 a les 00 UTC al 09 a les 24 UTC
Vent 6 kt del Nord
Visibilitat: 10 km
Escasses núvols a una alçada de 3000 ft
Cel ennuvolat a una alçada de 10000 ft
A partir de les 09 a les 0600 UTC
Vent 15 kt del Nord/Nord-Est amb ràfegues de 22 kt
Visibilitat: 10 km
Escasses núvols a una alçada de 3000 ft
Cel ennuvolat a una alçada de 7000 ft

TAF: PATK 082335Z 0900/0924 01006KT P6SM FEW030 BKN100 FM090600 02015G22KT P6SM FEW030 BKN070

Observacions i pronòstics meteorològics de més de 4000 aeroports (METAR i TAF).

Les estacions disponibles són els punts grocs i vermells al mapa.

Posi el ratolí al punt desitjat per veure el nom de l'estació.

Feu clic per veure les observacions i els pronòstics meteorològics.

Per canviar el mapa: feu clic els botons verds amb una creu de color negre per apropar; al botó verd amb un guió per allunyar la imatge; o en les fletxes verdes per a mapes adjacents.


METAR-TAF: